Time;durP1;ratioP1;P1;durP2;ratioP2;P2;SDS_P1;SDS_P2;PMS_P1;PMS_P2;Temp;Humidity;BMP_temperature;BMP_pressure;BME280_temperature;BME280_humidity;BME280_pressure;Samples;Min_cycle;Max_cycle;Signal;HPM_P1;HPM_P2
2022/05/28 00:00:07;;;;;;;7.90;4.90;;;;;;;;;;4998081;28;20583;-54
2022/05/28 00:02:32;;;;;;;8.65;4.97;;;;;;;;;;4997144;28;20029;-53
2022/05/28 00:04:58;;;;;;;8.80;5.00;;;;;;;;;;4998001;28;20602;-54
2022/05/28 00:07:24;;;;;;;9.30;5.18;;;;;;;;;;5000366;28;20022;-55
2022/05/28 00:09:49;;;;;;;7.82;5.00;;;;;;;;;;4998253;28;20084;-55
2022/05/28 00:12:15;;;;;;;8.30;4.90;;;;;;;;;;5005822;28;20018;-54
2022/05/28 00:14:40;;;;;;;7.28;4.90;;;;;;;;;;4997918;28;20061;-53
2022/05/28 00:17:05;;;;;;;10.30;5.10;;;;;;;;;;4993081;28;20416;-53
2022/05/28 00:19:30;;;;;;;10.30;5.18;;;;;;;;;;5006305;28;20127;-52
2022/05/28 00:21:56;;;;;;;9.20;4.70;;;;;;;;;;4999943;28;20044;-52
2022/05/28 00:24:21;;;;;;;8.63;5.47;;;;;;;;;;5000919;28;20700;-53
2022/05/28 00:26:46;;;;;;;7.83;4.87;;;;;;;;;;5005914;28;20257;-53
2022/05/28 00:29:11;;;;;;;7.80;4.87;;;;;;;;;;4998685;28;20311;-52
2022/05/28 00:31:37;;;;;;;6.03;4.60;;;;;;;;;;4997572;28;20272;-54
2022/05/28 00:34:03;;;;;;;6.82;4.53;;;;;;;;;;5001930;28;20321;-53
2022/05/28 00:36:28;;;;;;;8.77;4.75;;;;;;;;;;4999345;28;20145;-55
2022/05/28 00:38:54;;;;;;;6.33;4.60;;;;;;;;;;5001062;28;20022;-52
2022/05/28 00:41:19;;;;;;;7.95;5.22;;;;;;;;;;5006703;28;20932;-55
2022/05/28 00:43:45;;;;;;;7.57;4.85;;;;;;;;;;5001577;28;20022;-53
2022/05/28 00:46:12;;;;;;;8.32;4.32;;;;;;;;;;5005491;28;20191;-59
2022/05/28 00:48:40;;;;;;;8.10;4.43;;;;;;;;;;5017180;28;20061;-54
2022/05/28 00:51:06;;;;;;;7.40;4.47;;;;;;;;;;5006309;28;20030;-52
2022/05/28 00:53:32;;;;;;;8.60;4.65;;;;;;;;;;5004132;28;20112;-52
2022/05/28 00:55:57;;;;;;;9.23;5.07;;;;;;;;;;5004147;28;21889;-54
2022/05/28 00:58:22;;;;;;;5.70;4.50;;;;;;;;;;5015657;28;20033;-53
2022/05/28 01:00:47;;;;;;;9.00;4.90;;;;;;;;;;4998769;28;20293;-53
2022/05/28 01:03:13;;;;;;;7.82;4.68;;;;;;;;;;4999076;28;20267;-53
2022/05/28 01:05:38;;;;;;;9.37;4.97;;;;;;;;;;4997207;28;20778;-53
2022/05/28 01:08:14;;;;;;;7.07;4.80;;;;;;;;;;4999912;28;20025;-52
2022/05/28 01:10:42;;;;;;;8.25;5.10;;;;;;;;;;5014509;28;20268;-53
2022/05/28 01:13:20;;;;;;;7.40;4.85;;;;;;;;;;5002547;28;20033;-51
2022/05/28 01:16:14;;;;;;;6.45;4.40;;;;;;;;;;4999094;28;20037;-52
2022/05/28 01:18:43;;;;;;;7.28;4.35;;;;;;;;;;5009669;28;20044;-53
2022/05/28 01:21:10;;;;;;;8.90;4.10;;;;;;;;;;5005046;28;20022;-52
2022/05/28 01:23:54;;;;;;;8.60;4.35;;;;;;;;;;5006264;28;20014;-61
2022/05/28 01:26:40;;;;;;;6.75;4.10;;;;;;;;;;5003216;28;20030;-53
2022/05/28 01:29:06;;;;;;;8.23;4.10;;;;;;;;;;5001832;28;20647;-54
2022/05/28 01:31:31;;;;;;;7.13;3.50;;;;;;;;;;5002588;28;20049;-59
2022/05/28 01:33:57;;;;;;;6.18;3.42;;;;;;;;;;5001642;28;20021;-53
2022/05/28 01:36:22;;;;;;;6.60;3.90;;;;;;;;;;5028217;28;20104;-54
2022/05/28 01:38:48;;;;;;;7.70;4.43;;;;;;;;;;5001764;28;20029;-53
2022/05/28 01:41:13;;;;;;;6.57;3.53;;;;;;;;;;4996536;28;20842;-54
2022/05/28 01:43:40;;;;;;;7.40;3.70;;;;;;;;;;5015738;28;20034;-54
2022/05/28 01:46:05;;;;;;;10.15;5.05;;;;;;;;;;4996309;28;20107;-55
2022/05/28 01:48:31;;;;;;;7.53;4.30;;;;;;;;;;5004707;28;20093;-53
2022/05/28 01:50:56;;;;;;;7.87;4.30;;;;;;;;;;5017143;28;20037;-52
2022/05/28 01:56:05;;;;;;;8.40;4.30;;;;;;;;;;4999267;28;20129;-53
2022/05/28 01:58:30;;;;;;;8.17;4.50;;;;;;;;;;5005567;28;21020;-53
2022/05/28 02:00:56;;;;;;;9.40;4.00;;;;;;;;;;5004893;28;20460;-53
2022/05/28 02:03:21;;;;;;;7.80;4.05;;;;;;;;;;5000450;28;20037;-53
2022/05/28 02:05:46;;;;;;;6.87;4.00;;;;;;;;;;5004252;28;20030;-53
2022/05/28 02:08:13;;;;;;;7.00;4.40;;;;;;;;;;5001080;28;20384;-53
2022/05/28 02:10:39;;;;;;;6.28;4.28;;;;;;;;;;4999552;28;20698;-53
2022/05/28 02:13:09;;;;;;;8.65;4.32;;;;;;;;;;5031347;28;20021;-52
2022/05/28 02:16:04;;;;;;;9.23;4.70;;;;;;;;;;5007812;28;20045;-52
2022/05/28 02:18:44;;;;;;;7.32;3.78;;;;;;;;;;4998546;28;20042;-52
2022/05/28 02:21:10;;;;;;;7.70;4.55;;;;;;;;;;4995824;28;20052;-52
2022/05/28 02:23:36;;;;;;;9.45;4.55;;;;;;;;;;4997576;28;20072;-53
2022/05/28 02:26:01;;;;;;;9.97;4.50;;;;;;;;;;4998898;28;20018;-52
2022/05/28 02:28:27;;;;;;;9.15;3.80;;;;;;;;;;5004108;28;20263;-53
2022/05/28 02:30:53;;;;;;;7.13;3.80;;;;;;;;;;5000546;28;20725;-53
2022/05/28 02:33:19;;;;;;;6.88;3.67;;;;;;;;;;5002946;28;20009;-52
2022/05/28 02:35:47;;;;;;;7.50;4.03;;;;;;;;;;5006742;28;20014;-53
2022/05/28 02:38:12;;;;;;;6.95;3.80;;;;;;;;;;5001602;28;20084;-54
2022/05/28 02:40:38;;;;;;;10.55;3.95;;;;;;;;;;5006510;28;20117;-52
2022/05/28 02:43:03;;;;;;;9.40;3.83;;;;;;;;;;5009371;28;20025;-52
2022/05/28 02:45:29;;;;;;;7.78;3.00;;;;;;;;;;5003148;28;20038;-52
2022/05/28 02:47:56;;;;;;;9.70;3.60;;;;;;;;;;5003026;28;20069;-53
2022/05/28 02:50:22;;;;;;;8.00;3.38;;;;;;;;;;4999923;28;20350;-52
2022/05/28 02:52:47;;;;;;;8.90;3.45;;;;;;;;;;5001460;28;20034;-53
2022/05/28 02:55:12;;;;;;;8.77;3.37;;;;;;;;;;5006873;28;20018;-53
2022/05/28 02:57:37;;;;;;;8.20;3.50;;;;;;;;;;5003473;28;20317;-52
2022/05/28 03:00:03;;;;;;;6.60;3.03;;;;;;;;;;5003856;28;20087;-53
2022/05/28 03:02:28;;;;;;;5.78;3.13;;;;;;;;;;4996355;28;20257;-55
2022/05/28 03:04:54;;;;;;;6.35;3.20;;;;;;;;;;5004885;28;20116;-53
2022/05/28 03:07:20;;;;;;;7.95;3.55;;;;;;;;;;5003956;28;20018;-54
2022/05/28 03:09:45;;;;;;;7.45;3.28;;;;;;;;;;5002572;28;20018;-53
2022/05/28 03:12:11;;;;;;;6.07;3.33;;;;;;;;;;5004779;28;20021;-53
2022/05/28 03:14:36;;;;;;;6.03;3.60;;;;;;;;;;5008499;28;20121;-54
2022/05/28 03:17:01;;;;;;;6.97;3.30;;;;;;;;;;4993899;28;20029;-55
2022/05/28 03:19:27;;;;;;;6.50;3.40;;;;;;;;;;5001326;28;20038;-53
2022/05/28 03:21:52;;;;;;;6.25;3.35;;;;;;;;;;4997158;28;20056;-54
2022/05/28 03:24:18;;;;;;;6.90;3.00;;;;;;;;;;5003906;28;20064;-54
2022/05/28 03:26:43;;;;;;;7.23;3.00;;;;;;;;;;5000377;28;20576;-53
2022/05/28 03:29:08;;;;;;;6.82;3.28;;;;;;;;;;5000003;28;20443;-52
2022/05/28 03:31:33;;;;;;;6.13;3.33;;;;;;;;;;5003132;28;20018;-53
2022/05/28 03:33:59;;;;;;;7.03;3.28;;;;;;;;;;4999531;28;20026;-55
2022/05/28 03:36:24;;;;;;;7.60;3.17;;;;;;;;;;4999066;28;20037;-52
2022/05/28 03:38:49;;;;;;;6.80;3.17;;;;;;;;;;5006465;28;20017;-53
2022/05/28 03:41:15;;;;;;;6.18;3.00;;;;;;;;;;5004689;28;20037;-52
2022/05/28 03:43:40;;;;;;;6.20;2.90;;;;;;;;;;5004347;28;20030;-54
2022/05/28 03:46:05;;;;;;;9.00;3.63;;;;;;;;;;5005127;28;20055;-54
2022/05/28 03:48:31;;;;;;;7.13;3.40;;;;;;;;;;4997530;28;20025;-53
2022/05/28 03:50:56;;;;;;;6.15;3.40;;;;;;;;;;5004226;28;20045;-54
2022/05/28 03:53:21;;;;;;;6.90;3.25;;;;;;;;;;4996268;28;20037;-54
2022/05/28 03:55:47;;;;;;;8.75;3.20;;;;;;;;;;5009171;28;20047;-53
2022/05/28 03:58:12;;;;;;;5.43;3.10;;;;;;;;;;4993975;28;20439;-54
2022/05/28 04:00:37;;;;;;;6.82;3.28;;;;;;;;;;4996716;28;20851;-52
2022/05/28 04:03:03;;;;;;;5.20;3.10;;;;;;;;;;5000569;28;20026;-53
2022/05/28 04:05:28;;;;;;;7.00;3.22;;;;;;;;;;4998037;28;20040;-55
2022/05/28 04:07:53;;;;;;;6.43;3.30;;;;;;;;;;5001175;28;20111;-53
2022/05/28 04:10:19;;;;;;;6.03;3.53;;;;;;;;;;5002334;28;20016;-53
2022/05/28 04:12:44;;;;;;;5.03;3.22;;;;;;;;;;5002067;28;20288;-52
2022/05/28 04:15:10;;;;;;;7.22;3.45;;;;;;;;;;5003601;28;21217;-55
2022/05/28 04:17:35;;;;;;;4.82;3.13;;;;;;;;;;4998081;28;20324;-55
2022/05/28 04:20:00;;;;;;;4.93;3.35;;;;;;;;;;5002524;28;20533;-53
2022/05/28 04:22:26;;;;;;;7.13;3.15;;;;;;;;;;4997983;28;20493;-52
2022/05/28 04:24:51;;;;;;;6.50;3.00;;;;;;;;;;5001805;28;20137;-56
2022/05/28 04:27:16;;;;;;;4.82;3.47;;;;;;;;;;4988325;28;20284;-55
2022/05/28 04:29:42;;;;;;;8.67;3.40;;;;;;;;;;4997830;28;20516;-52
2022/05/28 04:32:07;;;;;;;8.50;3.05;;;;;;;;;;4996191;28;20289;-53
2022/05/28 04:34:32;;;;;;;7.25;2.97;;;;;;;;;;5004738;28;20033;-53
2022/05/28 04:36:58;;;;;;;7.25;3.00;;;;;;;;;;4998334;28;20026;-54
2022/05/28 04:39:23;;;;;;;6.73;2.93;;;;;;;;;;5004548;28;20009;-54
2022/05/28 04:41:48;;;;;;;7.25;3.00;;;;;;;;;;4999251;28;20311;-53
2022/05/28 04:44:14;;;;;;;4.87;3.03;;;;;;;;;;4998842;28;21518;-54
2022/05/28 04:46:39;;;;;;;7.45;3.10;;;;;;;;;;4997497;28;20636;-52
2022/05/28 04:49:05;;;;;;;6.53;3.10;;;;;;;;;;4997594;28;20565;-52
2022/05/28 04:51:30;;;;;;;9.00;3.30;;;;;;;;;;4998810;28;20044;-54
2022/05/28 04:53:55;;;;;;;8.80;2.92;;;;;;;;;;4995215;28;20030;-53
2022/05/28 04:56:21;;;;;;;7.20;3.00;;;;;;;;;;4993830;28;20081;-51
2022/05/28 04:58:46;;;;;;;7.70;3.00;;;;;;;;;;4995074;28;20092;-54
2022/05/28 05:01:15;;;;;;;7.13;2.90;;;;;;;;;;4991615;28;20022;-52
2022/05/28 05:03:40;;;;;;;6.40;3.05;;;;;;;;;;4986990;28;20268;-54
2022/05/28 05:06:05;;;;;;;6.03;2.78;;;;;;;;;;4989431;28;20038;-53
2022/05/28 05:08:31;;;;;;;6.25;3.20;;;;;;;;;;4990333;28;20033;-53
2022/05/28 05:10:56;;;;;;;8.87;3.00;;;;;;;;;;4990228;28;20032;-52
2022/05/28 05:13:21;;;;;;;9.35;3.30;;;;;;;;;;4992684;28;20379;-53
2022/05/28 05:15:47;;;;;;;7.10;3.38;;;;;;;;;;4993353;28;20053;-57
2022/05/28 05:18:12;;;;;;;7.93;3.53;;;;;;;;;;4997968;28;20018;-54
2022/05/28 05:20:37;;;;;;;8.83;3.57;;;;;;;;;;5000859;28;20040;-58
2022/05/28 05:23:03;;;;;;;6.93;3.23;;;;;;;;;;4998812;28;20284;-55
2022/05/28 05:25:28;;;;;;;8.70;3.13;;;;;;;;;;4997340;28;20830;-57
2022/05/28 05:27:54;;;;;;;5.30;3.43;;;;;;;;;;4997837;28;20018;-60
2022/05/28 05:30:19;;;;;;;8.55;3.65;;;;;;;;;;5002431;28;20312;-56
2022/05/28 05:32:44;;;;;;;9.67;3.47;;;;;;;;;;5005009;28;20018;-57
2022/05/28 05:35:10;;;;;;;13.13;3.90;;;;;;;;;;5002854;28;20648;-58
2022/05/28 05:37:35;;;;;;;7.78;3.53;;;;;;;;;;5002358;28;20169;-59
2022/05/28 05:40:00;;;;;;;8.65;4.18;;;;;;;;;;4999729;28;20230;-60
2022/05/28 05:42:26;;;;;;;7.00;3.30;;;;;;;;;;4999576;28;20401;-58
2022/05/28 05:44:53;;;;;;;9.40;3.70;;;;;;;;;;5002893;28;20288;-57
2022/05/28 05:47:18;;;;;;;9.90;3.45;;;;;;;;;;5017355;28;21069;-53
2022/05/28 05:49:43;;;;;;;8.60;4.10;;;;;;;;;;4999719;28;20029;-56
2022/05/28 05:52:09;;;;;;;7.87;3.77;;;;;;;;;;5003278;28;20381;-55
2022/05/28 05:54:34;;;;;;;9.40;3.63;;;;;;;;;;5004315;28;20276;-57
2022/05/28 05:56:59;;;;;;;8.93;3.50;;;;;;;;;;5006177;28;20302;-56
2022/05/28 05:59:25;;;;;;;8.25;3.70;;;;;;;;;;5000263;28;20103;-55
2022/05/28 06:01:50;;;;;;;7.07;3.73;;;;;;;;;;5001153;28;20037;-55
2022/05/28 06:04:15;;;;;;;9.23;4.27;;;;;;;;;;5001395;28;20388;-55
2022/05/28 06:06:41;;;;;;;7.25;3.50;;;;;;;;;;5007089;28;20850;-55
2022/05/28 06:09:06;;;;;;;7.53;3.80;;;;;;;;;;4997549;28;20018;-54
2022/05/28 06:11:32;;;;;;;9.57;3.47;;;;;;;;;;4999770;28;20437;-57
2022/05/28 06:13:57;;;;;;;11.93;4.43;;;;;;;;;;4998917;28;20288;-56
2022/05/28 06:16:22;;;;;;;9.70;3.90;;;;;;;;;;5003839;28;20080;-57
2022/05/28 06:18:47;;;;;;;10.48;4.32;;;;;;;;;;5005887;28;20583;-57
2022/05/28 06:21:13;;;;;;;8.93;4.55;;;;;;;;;;4998483;28;20022;-56
2022/05/28 06:23:38;;;;;;;9.02;4.40;;;;;;;;;;4999981;28;20029;-56
2022/05/28 06:26:04;;;;;;;11.18;4.78;;;;;;;;;;4999047;28;20046;-58
2022/05/28 06:28:29;;;;;;;10.38;5.07;;;;;;;;;;5008051;28;20026;-55
2022/05/28 06:30:58;;;;;;;9.50;4.30;;;;;;;;;;5000970;28;20044;-57
2022/05/28 06:33:23;;;;;;;11.23;5.18;;;;;;;;;;5001767;28;20281;-55
2022/05/28 06:35:48;;;;;;;14.43;5.50;;;;;;;;;;5002217;28;20080;-57
2022/05/28 06:38:14;;;;;;;7.83;4.10;;;;;;;;;;5000914;28;20273;-58
2022/05/28 06:40:40;;;;;;;7.68;3.90;;;;;;;;;;5002053;28;20269;-58
2022/05/28 06:43:05;;;;;;;8.05;4.30;;;;;;;;;;5005651;28;20028;-58
2022/05/28 06:45:30;;;;;;;7.93;4.53;;;;;;;;;;5002787;28;20040;-61
2022/05/28 06:47:55;;;;;;;10.03;4.40;;;;;;;;;;5002135;28;20090;-56
2022/05/28 06:53:08;;;;;;;10.35;4.80;;;;;;;;;;5001897;28;20032;-56
2022/05/28 06:55:33;;;;;;;7.35;4.22;;;;;;;;;;5005085;28;20041;-57
2022/05/28 06:57:59;;;;;;;9.35;4.25;;;;;;;;;;4995355;28;20026;-54
2022/05/28 07:00:24;;;;;;;8.03;4.40;;;;;;;;;;5000251;28;20497;-58
2022/05/28 07:02:49;;;;;;;7.55;4.30;;;;;;;;;;4999087;28;20331;-54
2022/05/28 07:05:14;;;;;;;7.37;4.30;;;;;;;;;;5004785;28;20034;-56
2022/05/28 07:07:40;;;;;;;10.10;4.70;;;;;;;;;;4996018;28;20338;-54
2022/05/28 07:10:06;;;;;;;10.23;4.95;;;;;;;;;;5005050;28;20014;-54
2022/05/28 07:12:31;;;;;;;8.65;4.22;;;;;;;;;;5029425;28;20022;-54
2022/05/28 07:14:56;;;;;;;7.40;4.10;;;;;;;;;;5003408;28;20128;-54
2022/05/28 07:17:22;;;;;;;10.07;3.97;;;;;;;;;;5002399;28;20390;-56
2022/05/28 07:19:48;;;;;;;8.98;3.85;;;;;;;;;;5012939;28;20319;-53
2022/05/28 07:22:13;;;;;;;8.60;3.90;;;;;;;;;;4997643;28;20107;-55
2022/05/28 07:24:38;;;;;;;9.95;4.13;;;;;;;;;;5008550;28;20025;-56
2022/05/28 07:27:05;;;;;;;7.80;3.50;;;;;;;;;;5008244;28;20028;-56
2022/05/28 07:29:31;;;;;;;8.25;3.88;;;;;;;;;;5000815;28;20281;-56
2022/05/28 07:31:56;;;;;;;7.50;3.75;;;;;;;;;;5006969;28;20037;-53
2022/05/28 07:34:21;;;;;;;7.37;4.00;;;;;;;;;;5006539;28;20022;-52
2022/05/28 07:36:48;;;;;;;8.75;3.70;;;;;;;;;;5013324;28;20022;-56
2022/05/28 07:39:13;;;;;;;8.15;3.30;;;;;;;;;;5005838;28;20041;-56
2022/05/28 07:41:38;;;;;;;6.72;3.40;;;;;;;;;;5011448;28;20018;-54
2022/05/28 07:44:04;;;;;;;9.03;3.77;;;;;;;;;;5013822;28;20171;-52
2022/05/28 07:46:29;;;;;;;9.98;4.05;;;;;;;;;;4999947;28;20288;-53
2022/05/28 07:48:55;;;;;;;10.07;3.65;;;;;;;;;;5011680;28;20081;-54
2022/05/28 07:51:20;;;;;;;8.30;3.65;;;;;;;;;;4996943;28;20022;-56
2022/05/28 07:53:46;;;;;;;11.63;3.93;;;;;;;;;;5009260;28;20021;-54
2022/05/28 07:56:11;;;;;;;9.70;3.90;;;;;;;;;;5000049;28;20284;-56
2022/05/28 07:58:36;;;;;;;10.02;3.90;;;;;;;;;;4995402;28;20164;-55
2022/05/28 08:01:02;;;;;;;11.03;4.20;;;;;;;;;;4996758;28;20083;-53
2022/05/28 08:03:27;;;;;;;7.65;3.60;;;;;;;;;;5010865;28;20264;-55
2022/05/28 08:05:53;;;;;;;8.40;3.85;;;;;;;;;;5006216;28;20045;-55
2022/05/28 08:08:18;;;;;;;9.07;4.03;;;;;;;;;;5000598;28;20080;-54
2022/05/28 08:10:44;;;;;;;10.13;4.20;;;;;;;;;;5006999;28;20025;-55
2022/05/28 08:13:10;;;;;;;8.63;4.07;;;;;;;;;;4999053;28;20417;-54
2022/05/28 08:15:36;;;;;;;6.65;4.20;;;;;;;;;;5001371;28;20264;-55
2022/05/28 08:18:01;;;;;;;11.48;4.55;;;;;;;;;;5009806;28;20013;-55
2022/05/28 08:23:10;;;;;;;8.15;3.92;;;;;;;;;;5001404;28;20296;-55
2022/05/28 08:25:36;;;;;;;11.68;4.63;;;;;;;;;;5004505;28;20493;-54
2022/05/28 08:28:01;;;;;;;12.32;4.22;;;;;;;;;;4999442;28;20028;-55
2022/05/28 08:30:27;;;;;;;7.97;4.00;;;;;;;;;;5003162;28;20048;-56
2022/05/28 08:32:52;;;;;;;12.03;3.70;;;;;;;;;;5002537;28;20804;-55
2022/05/28 08:35:17;;;;;;;9.95;3.53;;;;;;;;;;5001796;28;20286;-56
2022/05/28 08:37:42;;;;;;;10.97;3.63;;;;;;;;;;4999476;28;20109;-55
2022/05/28 08:40:08;;;;;;;13.10;4.43;;;;;;;;;;4999560;28;20792;-56
2022/05/28 08:42:33;;;;;;;8.63;4.03;;;;;;;;;;4999759;28;20349;-57
2022/05/28 08:44:59;;;;;;;9.90;3.95;;;;;;;;;;4996741;28;20528;-54
2022/05/28 08:47:28;;;;;;;9.70;4.23;;;;;;;;;;5004051;28;20110;-56
2022/05/28 08:49:53;;;;;;;10.77;3.75;;;;;;;;;;4989890;28;20300;-56
2022/05/28 08:52:21;;;;;;;8.23;3.80;;;;;;;;;;4991498;28;20065;-55
2022/05/28 08:55:08;;;;;;;9.77;4.32;;;;;;;;;;4996194;28;20679;-56
2022/05/28 08:57:36;;;;;;;9.25;3.63;;;;;;;;;;4991407;28;20026;-56
2022/05/28 09:00:05;;;;;;;9.73;3.50;;;;;;;;;;4999442;28;20025;-55
2022/05/28 09:02:40;;;;;;;9.07;3.65;;;;;;;;;;5021398;28;20037;-55
2022/05/28 09:05:25;;;;;;;7.78;3.47;;;;;;;;;;4997336;28;20076;-55
2022/05/28 09:07:51;;;;;;;11.13;3.80;;;;;;;;;;4995796;28;20034;-56
2022/05/28 09:10:16;;;;;;;10.32;3.72;;;;;;;;;;4915671;28;20034;-53
2022/05/28 09:12:44;;;;;;;13.45;4.03;;;;;;;;;;4973081;28;20037;-56
2022/05/28 09:15:10;;;;;;;10.55;3.88;;;;;;;;;;4989902;28;20014;-55
2022/05/28 09:17:45;;;;;;;8.68;4.18;;;;;;;;;;4988710;28;20610;-54
2022/05/28 09:20:12;;;;;;;9.60;3.58;;;;;;;;;;4990173;28;20522;-56
2022/05/28 09:22:38;;;;;;;7.68;3.70;;;;;;;;;;4988202;28;20050;-55
2022/05/28 09:25:03;;;;;;;10.95;4.15;;;;;;;;;;4986647;28;20065;-54
2022/05/28 09:27:44;;;;;;;9.68;4.03;;;;;;;;;;4996589;28;20046;-55
2022/05/28 09:30:22;;;;;;;9.32;3.33;;;;;;;;;;4997380;28;20062;-56
2022/05/28 09:32:54;;;;;;;8.48;3.63;;;;;;;;;;5000208;28;20025;-56
2022/05/28 09:35:25;;;;;;;10.15;4.25;;;;;;;;;;4995672;28;20023;-56
2022/05/28 09:37:59;;;;;;;10.88;4.03;;;;;;;;;;4991159;28;20077;-56
2022/05/28 09:40:42;;;;;;;9.80;3.72;;;;;;;;;;5019600;28;20014;-55
2022/05/28 09:43:16;;;;;;;8.43;3.42;;;;;;;;;;4999011;28;20030;-54
2022/05/28 09:45:50;;;;;;;8.50;4.07;;;;;;;;;;5004395;28;20034;-56
2022/05/28 09:48:25;;;;;;;8.30;4.00;;;;;;;;;;4995640;28;20036;-55
2022/05/28 09:50:51;;;;;;;10.02;4.20;;;;;;;;;;5005713;28;20196;-58
2022/05/28 09:56:08;;;;;;;9.98;4.60;;;;;;;;;;5003477;28;20291;-56
2022/05/28 09:58:35;;;;;;;9.23;3.70;;;;;;;;;;5012391;28;20025;-57
2022/05/28 10:01:11;;;;;;;11.57;4.15;;;;;;;;;;5002424;28;20068;-57
2022/05/28 10:06:26;;;;;;;10.73;4.13;;;;;;;;;;5001706;28;20045;-56
2022/05/28 10:08:51;;;;;;;9.82;4.18;;;;;;;;;;5003744;28;20021;-56
2022/05/28 10:11:19;;;;;;;11.00;4.15;;;;;;;;;;4993744;28;20048;-56
2022/05/28 10:13:48;;;;;;;10.27;4.10;;;;;;;;;;4999553;28;20025;-56
2022/05/28 10:16:15;;;;;;;9.10;4.25;;;;;;;;;;5000150;28;20288;-56
2022/05/28 10:18:41;;;;;;;8.18;4.43;;;;;;;;;;5006127;28;20285;-56
2022/05/28 10:21:07;;;;;;;9.60;4.18;;;;;;;;;;5023665;28;20026;-57
2022/05/28 10:23:34;;;;;;;8.60;4.32;;;;;;;;;;4996646;28;20535;-56
2022/05/28 10:25:59;;;;;;;9.55;4.22;;;;;;;;;;4999970;28;20033;-56
2022/05/28 10:28:29;;;;;;;9.60;4.35;;;;;;;;;;5008527;28;20022;-51
2022/05/28 10:30:55;;;;;;;8.82;4.47;;;;;;;;;;5012597;28;20030;-52
2022/05/28 10:33:21;;;;;;;8.40;3.90;;;;;;;;;;5008485;28;20441;-53
2022/05/28 10:35:47;;;;;;;13.43;4.65;;;;;;;;;;5016419;28;20053;-54
2022/05/28 10:38:12;;;;;;;10.35;4.78;;;;;;;;;;5013267;28;20462;-52
2022/05/28 10:40:38;;;;;;;12.33;5.47;;;;;;;;;;5015925;28;20075;-52
2022/05/28 10:43:05;;;;;;;13.02;5.97;;;;;;;;;;5010727;28;20260;-52
2022/05/28 10:45:37;;;;;;;14.13;5.75;;;;;;;;;;5000327;28;20481;-53
2022/05/28 10:48:11;;;;;;;14.18;6.03;;;;;;;;;;5018260;28;20021;-51
2022/05/28 10:50:39;;;;;;;9.85;4.82;;;;;;;;;;4998859;28;20022;-52
2022/05/28 10:53:29;;;;;;;12.25;5.10;;;;;;;;;;4998354;28;20132;-55
2022/05/28 10:55:58;;;;;;;9.27;5.00;;;;;;;;;;5005073;28;20038;-52
2022/05/28 10:58:32;;;;;;;11.07;5.13;;;;;;;;;;5010424;28;20072;-53
2022/05/28 11:01:03;;;;;;;9.98;5.40;;;;;;;;;;5008926;28;20787;-52
2022/05/28 11:03:47;;;;;;;13.07;5.30;;;;;;;;;;5012271;28;20017;-52
2022/05/28 11:06:32;;;;;;;9.88;4.80;;;;;;;;;;5007296;28;20030;-53
2022/05/28 11:09:04;;;;;;;9.48;5.22;;;;;;;;;;5006332;28;20022;-52
2022/05/28 11:11:34;;;;;;;12.60;5.00;;;;;;;;;;5012235;28;20017;-52
2022/05/28 11:14:18;;;;;;;15.68;5.57;;;;;;;;;;5010403;28;20161;-53
2022/05/28 11:16:47;;;;;;;9.68;4.90;;;;;;;;;;5003327;28;20040;-51
2022/05/28 11:19:13;;;;;;;;;;;;;;;;;;5004160;28;20563;-53
2022/05/28 11:21:46;;;;;;;9.18;4.32;;;;;;;;;;5010170;28;19909;-52
2022/05/28 11:24:21;;;;;;;9.18;4.55;;;;;;;;;;4994957;28;20191;-53
2022/05/28 11:26:46;;;;;;;7.20;4.78;;;;;;;;;;5008373;28;20041;-52
2022/05/28 11:29:21;;;;;;;9.50;5.23;;;;;;;;;;5006238;28;20050;-53
2022/05/28 11:31:49;;;;;;;7.43;5.05;;;;;;;;;;5004931;28;20791;-53
2022/05/28 11:34:16;;;;;;;11.40;4.70;;;;;;;;;;5009743;28;20025;-53
2022/05/28 11:36:46;;;;;;;9.43;4.47;;;;;;;;;;5006203;28;20025;-51
2022/05/28 11:39:12;;;;;;;;;;;;;;;;;;4997615;28;20138;-51
2022/05/28 11:41:44;;;;;;;8.75;4.43;;;;;;;;;;5004046;28;19916;-51
2022/05/28 11:44:24;;;;;;;9.98;4.63;;;;;;;;;;5001668;28;20044;-52
2022/05/28 11:46:49;;;;;;;11.02;5.28;;;;;;;;;;4996903;28;20030;-53
2022/05/28 11:52:07;;;;;;;10.77;4.55;;;;;;;;;;5002823;28;20318;-53
2022/05/28 11:54:33;;;;;;;7.82;4.35;;;;;;;;;;5006427;28;20022;-52
2022/05/28 11:57:00;;;;;;;12.18;5.60;;;;;;;;;;5008691;28;20026;-53
2022/05/28 11:59:26;;;;;;;11.63;5.38;;;;;;;;;;5020309;28;20029;-52
2022/05/28 12:02:01;;;;;;;8.35;4.47;;;;;;;;;;5013286;28;20021;-51
2022/05/28 12:04:28;;;;;;;9.15;4.78;;;;;;;;;;5003560;28;20057;-53
2022/05/28 12:07:05;;;;;;;8.98;4.32;;;;;;;;;;5013373;28;20029;-56
2022/05/28 12:09:34;;;;;;;12.90;5.07;;;;;;;;;;4990707;28;20041;-52
2022/05/28 12:12:02;;;;;;;8.95;4.10;;;;;;;;;;4993675;28;20064;-52
2022/05/28 12:14:28;;;;;;;9.30;4.65;;;;;;;;;;4995167;28;20037;-53
2022/05/28 12:17:21;;;;;;;9.77;4.82;;;;;;;;;;5004284;28;20107;-53
2022/05/28 12:19:48;;;;;;;13.45;4.80;;;;;;;;;;4995945;28;20027;-53
2022/05/28 12:22:32;;;;;;;9.70;4.78;;;;;;;;;;5023660;28;20024;-53
2022/05/28 12:25:25;;;;;;;15.82;5.00;;;;;;;;;;4997107;28;20061;-53
2022/05/28 12:27:56;;;;;;;10.73;4.57;;;;;;;;;;4993758;28;20129;-51
2022/05/28 12:30:29;;;;;;;10.00;4.35;;;;;;;;;;5005203;28;20060;-52
2022/05/28 12:32:55;;;;;;;8.93;4.63;;;;;;;;;;5010669;28;20950;-56
2022/05/28 12:35:23;;;;;;;10.13;4.90;;;;;;;;;;4998957;28;20034;-53
2022/05/28 12:37:51;;;;;;;11.50;5.00;;;;;;;;;;5007268;28;20033;-53
2022/05/28 12:40:35;;;;;;;15.02;5.28;;;;;;;;;;4990070;28;20018;-54
2022/05/28 12:43:16;;;;;;;9.52;5.05;;;;;;;;;;5001048;28;20033;-56
2022/05/28 12:45:42;;;;;;;12.38;5.22;;;;;;;;;;5000903;28;20215;-53
2022/05/28 12:48:26;;;;;;;8.70;5.22;;;;;;;;;;4999137;28;20025;-53
2022/05/28 12:51:03;;;;;;;8.95;4.63;;;;;;;;;;4998569;28;20084;-54
2022/05/28 12:53:29;;;;;;;9.52;5.10;;;;;;;;;;4996182;28;20333;-53
2022/05/28 12:56:02;;;;;;;11.15;4.78;;;;;;;;;;5002988;28;20056;-51
2022/05/28 12:58:28;;;;;;;12.70;5.22;;;;;;;;;;4997128;28;20015;-52
2022/05/28 13:00:55;;;;;;;10.60;5.10;;;;;;;;;;5005357;28;20088;-52
2022/05/28 13:03:21;;;;;;;12.40;5.55;;;;;;;;;;4997748;28;20018;-51
2022/05/28 13:05:53;;;;;;;12.45;5.47;;;;;;;;;;5000861;28;20033;-52
2022/05/28 13:08:22;;;;;;;10.35;5.70;;;;;;;;;;5003845;28;20037;-51
2022/05/28 13:10:50;;;;;;;12.07;5.55;;;;;;;;;;5004197;28;20018;-52
2022/05/28 13:13:22;;;;;;;12.43;5.60;;;;;;;;;;5011537;28;20484;-53
2022/05/28 13:15:53;;;;;;;11.77;5.57;;;;;;;;;;5002664;28;20027;-52
2022/05/28 13:18:24;;;;;;;13.00;5.82;;;;;;;;;;5011222;28;20045;-52
2022/05/28 13:20:49;;;;;;;11.05;5.28;;;;;;;;;;5006185;28;20034;-51
2022/05/28 13:23:21;;;;;;;10.97;5.50;;;;;;;;;;4999970;28;20402;-51
2022/05/28 13:26:09;;;;;;;8.63;5.07;;;;;;;;;;5007318;28;20033;-53
2022/05/28 13:28:56;;;;;;;12.05;6.20;;;;;;;;;;5003177;28;20507;-52
2022/05/28 13:31:24;;;;;;;10.60;5.97;;;;;;;;;;4997311;28;20048;-53
2022/05/28 13:33:49;;;;;;;12.27;6.13;;;;;;;;;;5018041;28;20093;-52
2022/05/28 13:36:15;;;;;;;11.90;6.53;;;;;;;;;;5008141;28;20497;-53
2022/05/28 13:38:41;;;;;;;10.50;6.30;;;;;;;;;;5020326;28;20014;-52
2022/05/28 13:41:09;;;;;;;14.68;6.60;;;;;;;;;;5007136;28;20009;-53
2022/05/28 13:43:35;;;;;;;16.08;7.20;;;;;;;;;;5014009;28;20076;-52
2022/05/28 13:46:01;;;;;;;12.15;7.00;;;;;;;;;;5005119;28;20034;-51
2022/05/28 13:48:26;;;;;;;16.05;7.40;;;;;;;;;;5021370;28;20417;-52
2022/05/28 13:50:53;;;;;;;17.30;7.28;;;;;;;;;;5012874;28;20416;-51
2022/05/28 13:53:20;;;;;;;11.25;6.93;;;;;;;;;;5008993;28;20353;-51
2022/05/28 13:55:45;;;;;;;14.32;6.93;;;;;;;;;;5011108;28;20265;-51
2022/05/28 13:58:23;;;;;;;14.65;7.22;;;;;;;;;;5005468;28;20564;-52
2022/05/28 14:00:55;;;;;;;13.25;6.97;;;;;;;;;;5010765;28;20022;-53
2022/05/28 14:03:24;;;;;;;16.85;7.53;;;;;;;;;;5008911;28;20037;-50
2022/05/28 14:05:49;;;;;;;15.07;7.47;;;;;;;;;;5007963;28;20564;-52
2022/05/28 14:08:17;;;;;;;14.93;7.63;;;;;;;;;;5033687;28;20101;-52
2022/05/28 14:10:42;;;;;;;13.85;6.68;;;;;;;;;;5021609;28;20973;-52
2022/05/28 14:13:16;;;;;;;12.87;7.07;;;;;;;;;;5027095;28;20032;-52
2022/05/28 14:15:41;;;;;;;15.57;7.20;;;;;;;;;;5005521;28;20257;-51
2022/05/28 14:18:07;;;;;;;16.05;7.15;;;;;;;;;;5012479;28;20213;-51
2022/05/28 14:20:33;;;;;;;14.27;6.82;;;;;;;;;;5004308;28;20048;-51
2022/05/28 14:22:58;;;;;;;13.20;6.75;;;;;;;;;;5005463;28;20468;-51
2022/05/28 14:25:28;;;;;;;11.77;6.63;;;;;;;;;;5028049;28;20084;-50
2022/05/28 14:27:54;;;;;;;11.98;6.50;;;;;;;;;;5014944;28;20339;-52
2022/05/28 14:30:20;;;;;;;14.23;5.55;;;;;;;;;;5007190;28;20531;-51
2022/05/28 14:32:45;;;;;;;10.88;5.45;;;;;;;;;;5014565;28;20021;-52
2022/05/28 14:35:12;;;;;;;14.03;5.47;;;;;;;;;;5023337;28;20045;-52
2022/05/28 14:37:37;;;;;;;11.10;5.13;;;;;;;;;;5016806;28;20275;-50
2022/05/28 14:40:02;;;;;;;11.67;5.17;;;;;;;;;;5005200;28;20485;-52
2022/05/28 14:42:28;;;;;;;14.38;5.47;;;;;;;;;;5013068;28;20351;-50
2022/05/28 14:44:53;;;;;;;12.90;5.80;;;;;;;;;;5006084;28;20033;-52
2022/05/28 14:47:25;;;;;;;8.85;4.70;;;;;;;;;;5012211;28;20963;-52
2022/05/28 14:49:52;;;;;;;13.35;5.32;;;;;;;;;;5004195;28;20025;-50
2022/05/28 14:52:18;;;;;;;13.70;4.90;;;;;;;;;;5014040;28;20025;-51
2022/05/28 14:54:53;;;;;;;15.38;5.32;;;;;;;;;;5002796;28;20021;-52
2022/05/28 14:57:23;;;;;;;15.25;4.75;;;;;;;;;;5000634;28;20017;-52
2022/05/28 14:59:48;;;;;;;;;;;;;;;;;;5002808;28;20018;-52